Home > Products > Valid Products > TAF

000
FTUS45 KGGW 252000 AAA
TAFGDV
TAF AMD
KGDV 252025Z 2520/2618 29020G30KT P6SM BKN025 OVC035
     FM260700 34008KT P6SM OVC005
     FM261200 VRB04KT 4SM BR OVC001
      AMD LTD TO CLD VIS AND WIND=



000
FTUS45 KGGW 252000 AAA
TAFGDV
TAF AMD
KGDV 252025Z 2520/2618 29020G30KT P6SM BKN025 OVC035
     FM260700 34008KT P6SM OVC005
     FM261200 VRB04KT 4SM BR OVC001
      AMD LTD TO CLD VIS AND WIND=



000
FTUS45 KGGW 252000 AAB
TAFOLF
TAF AMD
KOLF 252024Z 2520/2618 32017G27KT P6SM SCT025 BKN035 BKN120
     FM260300 35012KT P6SM BKN030
     FM260700 VRB05KT 6SM BR OVC020=



000
FTUS45 KGGW 252000 AAB
TAFOLF
TAF AMD
KOLF 252024Z 2520/2618 32017G27KT P6SM SCT025 BKN035 BKN120
     FM260300 35012KT P6SM BKN030
     FM260700 VRB05KT 6SM BR OVC020=



000
FTUS45 KGGW 251900 AAA
TAFGGW
TAF AMD
KGGW 251944Z 2520/2618 33020G30KT P6SM BKN040 BKN120
     FM260100 33012KT P6SM BKN035
     FM260700 VRB06KT 6SM BR OVC025=



000
FTUS45 KGGW 251800 AAA
TAFSDY
TAF AMD
KSDY 251851Z 2519/2618 26014G24KT P6SM SCT015 BKN060
     FM260400 33009KT 6SM BR OVC020
     FM260900 VRB05KT P6SM OVC007
      AMD LTD TO CLD VIS AND WIND=



000
FTUS45 KGGW 251800 AAA
TAFOLF
TAF AMD
KOLF 251850Z 2519/2618 29017KT P6SM VCSH SCT015 BKN120
     FM252000 32017G27KT P6SM SCT015 BKN120
     FM260300 35012KT P6SM BKN030
     FM260700 VRB05KT 6SM BR OVC020=



000
FTUS45 KGGW 251800 AAA
TAFOLF
TAF AMD
KOLF 251850Z 2519/2618 29017KT P6SM VCSH SCT015 BKN120
     FM252000 32017G27KT P6SM SCT015 BKN120
     FM260300 35012KT P6SM BKN030
     FM260700 VRB05KT 6SM BR OVC020=



000
FTUS45 KGGW 251700
TAFOLF
TAF
KOLF 251722Z 2518/2618 29012KT P6SM VCSH SCT015 BKN120
     FM252000 32017G27KT P6SM SCT015 BKN120
     FM260300 35012KT P6SM BKN030
     FM260700 VRB05KT 6SM BR OVC020=



000
FTUS45 KGGW 251700
TAFGDV
TAF
KGDV 251722Z 2518/2618 27016KT P6SM VCSH BKN014
     FM252000 31020G30KT P6SM OVC015
     FM260700 34008KT P6SM OVC005
     FM261200 VRB04KT 4SM BR OVC001
      AMD LTD TO CLD VIS AND WIND=



000
FTUS45 KGGW 251700
TAFSDY
TAF
KSDY 251722Z 2518/2618 26014KT P6SM VCSH SCT015 BKN060
     FM260400 33009KT 6SM BR OVC020
     FM260900 VRB05KT P6SM OVC007
      AMD LTD TO CLD VIS AND WIND=



000
FTUS45 KGGW 251700
TAFGDV
TAF
KGDV 251722Z 2518/2618 27016KT P6SM VCSH BKN014
     FM252000 31020G30KT P6SM OVC015
     FM260700 34008KT P6SM OVC005
     FM261200 VRB04KT 4SM BR OVC001
      AMD LTD TO CLD VIS AND WIND=



000
FTUS45 KGGW 251700
TAFOLF
TAF
KOLF 251722Z 2518/2618 29012KT P6SM VCSH SCT015 BKN120
     FM252000 32017G27KT P6SM SCT015 BKN120
     FM260300 35012KT P6SM BKN030
     FM260700 VRB05KT 6SM BR OVC020=



000
FTUS45 KGGW 251700
TAFGGW
TAF
KGGW 251722Z 2518/2618 30018KT P6SM FEW025 BKN100
     FM252000 33020G30KT P6SM BKN120
     FM260100 33012KT P6SM BKN035
     FM260700 VRB06KT 6SM BR OVC025=



000
FTUS45 KGGW 251600 AAB
TAFOLF
TAF AMD
KOLF 251631Z 2517/2612 26012KT P6SM SCT006 BKN100
     FM251800 30016KT P6SM SCT015 BKN120
     FM260300 34010KT P6SM BKN020=



000
FTUS45 KGGW 251600 AAB
TAFOLF
TAF AMD
KOLF 251631Z 2517/2612 26012KT P6SM SCT006 BKN100
     FM251800 30016KT P6SM SCT015 BKN120
     FM260300 34010KT P6SM BKN020=



000
FTUS45 KGGW 251500 AAB
TAFGDV
TAF AMD
KGDV 251510Z 2515/2612 23006KT 2SM -SN BKN008 OVC015
     FM251800 29016KT P6SM VCSH BKN015
     FM260300 34011KT P6SM BKN025
      AMD LTD TO CLD VIS AND WIND=



000
FTUS45 KGGW 251500 AAA
TAFOLF
TAF AMD
KOLF 251508Z 2515/2612 VRB06KT P6SM VCSH BKN006 OVC025
     FM251800 30016KT P6SM BKN015
     FM260300 34010KT P6SM BKN020=



000
FTUS45 KGGW 251500 AAA
TAFOLF
TAF AMD
KOLF 251508Z 2515/2612 VRB06KT P6SM VCSH BKN006 OVC025
     FM251800 30016KT P6SM BKN015
     FM260300 34010KT P6SM BKN020=



000
FTUS45 KGGW 251400 AAA
TAFGDV
TAF AMD
KGDV 251403Z 2514/2612 23006KT 1SM -SN OVC015
     FM251530 27007KT P6SM VCSH OVC020
     FM251800 29016KT P6SM VCSH BKN015
     FM260300 34011KT P6SM BKN025
      AMD LTD TO CLD VIS AND WIND=



000
FTUS45 KGGW 251400 AAA
TAFGDV
TAF AMD
KGDV 251403Z 2514/2612 23006KT 1SM -SN OVC015
     FM251530 27007KT P6SM VCSH OVC020
     FM251800 29016KT P6SM VCSH BKN015
     FM260300 34011KT P6SM BKN025
      AMD LTD TO CLD VIS AND WIND=



000
FTUS45 KGGW 251400 AAB
TAFSDY
TAF AMD
KSDY 251401Z 2514/2612 16006KT 1/2SM SN OVC013
     FM251500 23009KT 3SM -SN OVC020
     FM251800 29016KT P6SM VCSH BKN015
     FM260400 33011KT P6SM OVC020
      AMD LTD TO CLD VIS AND WIND=



000
FTUS45 KGGW 251400 AAB
TAFGGW
TAF AMD
KGGW 251400Z 2514/2612 27007KT P6SM VCSH SCT010 OVC040
     FM251500 30009KT P6SM VCSH SCT010 OVC035
     FM251800 30016KT P6SM BKN015
     FM260200 33008KT P6SM BKN020=



000
FTUS45 KGGW 251300 AAA
TAFGGW
TAF AMD
KGGW 251323Z 2513/2612 26007KT 4SM -SN OVC005
     FM251400 30009KT P6SM VCSH OVC020
     FM251800 30016KT P6SM BKN015
     FM260200 33008KT P6SM BKN020=



000
FTUS45 KGGW 251300 AAA
TAFSDY
TAF AMD
KSDY 251322Z 2513/2612 16006KT 1SM -SN OVC020
     FM251500 23009KT 3SM -SN OVC020
     FM251800 29016KT P6SM VCSH BKN015
     FM260400 33011KT P6SM OVC020
      AMD LTD TO CLD VIS AND WIND=



000
FTUS45 KGGW 251100
TAFGDV
TAF
KGDV 251126Z 2512/2612 24006KT P6SM BKN050
     FM251400 25007KT 4SM -SN OVC015
     FM251800 29016KT P6SM VCSH BKN015
     FM260300 34011KT P6SM BKN025
      AMD LTD TO CLD VIS AND WIND=



000
FTUS45 KGGW 251100
TAFOLF
TAF
KOLF 251126Z 2512/2612 VRB05KT 2SM -SN OVC008
     FM251500 30010KT P6SM VCSH OVC025
     FM251800 30016KT P6SM BKN015
     FM260300 34010KT P6SM BKN020=



000
FTUS45 KGGW 251100
TAFOLF
TAF
KOLF 251126Z 2512/2612 VRB05KT 2SM -SN OVC008
     FM251500 30010KT P6SM VCSH OVC025
     FM251800 30016KT P6SM BKN015
     FM260300 34010KT P6SM BKN020=



000
FTUS45 KGGW 251100
TAFSDY
TAF
KSDY 251126Z 2512/2612 VRB06KT P6SM BKN060
     FM251400 23009KT 3SM -SN OVC020
     FM251800 29016KT P6SM VCSH BKN015
     FM260400 33011KT P6SM OVC020
      AMD LTD TO CLD VIS AND WIND=



000
FTUS45 KGGW 251100
TAFGDV
TAF
KGDV 251126Z 2512/2612 24006KT P6SM BKN050
     FM251400 25007KT 4SM -SN OVC015
     FM251800 29016KT P6SM VCSH BKN015
     FM260300 34011KT P6SM BKN025
      AMD LTD TO CLD VIS AND WIND=



000
FTUS45 KGGW 251100
TAFGGW
TAF
KGGW 251126Z 2512/2612 26007KT 1SM -SN OVC005
     FM251300 28008KT 4SM -SN OVC015
     FM251400 30009KT P6SM VCSH OVC025
     FM251800 30016KT P6SM BKN015
     FM260200 33008KT P6SM BKN020=



000
FTUS45 KGGW 250500
TAFSDY
TAF
KSDY 250520Z 2506/2606 VRB06KT P6SM BKN120
     FM251000 23009KT P6SM VCSH OVC025
     FM251800 29016KT P6SM VCSH BKN015
      AMD LTD TO CLD VIS AND WIND=



000
FTUS45 KGGW 250500
TAFOLF
TAF
KOLF 250520Z 2506/2606 VRB04KT P6SM OVC120
     FM251000 27010KT P6SM VCSH OVC025
     FM251800 29014KT P6SM BKN015=



000
FTUS45 KGGW 250500
TAFGDV
TAF
KGDV 250520Z 2506/2606 VRB06KT P6SM BKN120
     FM251100 30017KT P6SM VCSH BKN015
     FM260300 34013KT P6SM VCSH BKN025
      AMD LTD TO CLD VIS AND WIND=



000
FTUS45 KGGW 250500
TAFGDV
TAF
KGDV 250520Z 2506/2606 VRB06KT P6SM BKN120
     FM251100 30017KT P6SM VCSH BKN015
     FM260300 34013KT P6SM VCSH BKN025
      AMD LTD TO CLD VIS AND WIND=



000
FTUS45 KGGW 250500
TAFOLF
TAF
KOLF 250520Z 2506/2606 VRB04KT P6SM OVC120
     FM251000 27010KT P6SM VCSH OVC025
     FM251800 29014KT P6SM BKN015=



000
FTUS45 KGGW 250500
TAFGGW
TAF
KGGW 250520Z 2506/2606 VRB05KT P6SM OVC120
     FM251000 24007KT P6SM VCSH OVC025
     FM251800 30016KT P6SM BKN015=



000
FTUS45 KGGW 242300
TAFGDV
TAF
KGDV 242320Z 2500/2524 27010KT P6SM BKN050
     FM250600 VRB06KT P6SM VCSH BKN060
     FM251200 21008KT 5SM -SHSN OVC013
     FM251800 29016KT P6SM VCSH BKN009
      AMD LTD TO CLD VIS AND WIND=



000
FTUS45 KGGW 242300
TAFGDV
TAF
KGDV 242320Z 2500/2524 27010KT P6SM BKN050
     FM250600 VRB06KT P6SM VCSH BKN060
     FM251200 21008KT 5SM -SHSN OVC013
     FM251800 29016KT P6SM VCSH BKN009
      AMD LTD TO CLD VIS AND WIND=



000
FTUS45 KGGW 242300
TAFOLF
TAF
KOLF 242320Z 2500/2524 28010KT P6SM BKN050
     FM250600 VRB04KT P6SM VCSH BKN015
     FM251500 26008KT P6SM VCSH OVC025=



000
FTUS45 KGGW 242300
TAFOLF
TAF
KOLF 242320Z 2500/2524 28010KT P6SM BKN050
     FM250600 VRB04KT P6SM VCSH BKN015
     FM251500 26008KT P6SM VCSH OVC025=



000
FTUS45 KGGW 242300
TAFSDY
TAF
KSDY 242320Z 2500/2524 25011KT P6SM BKN050
     FM250600 VRB06KT P6SM VCSH BKN015
     FM251200 VRB06KT 5SM -SHSN OVC023
     FM251800 29015KT P6SM VCSH BKN011
      AMD LTD TO CLD VIS AND WIND=



000
FTUS45 KGGW 242300
TAFGGW
TAF
KGGW 242320Z 2500/2524 29009KT P6SM FEW035 BKN120
     FM250600 VRB05KT 5SM -SHSN OVC015
     FM251200 VRB05KT P6SM VCSH OVC010 WS007/27035KT
     FM251500 29011KT P6SM VCSH OVC025=



000
FTUS45 KGGW 241700
TAFSDY
TAF
KSDY 241727Z 2418/2518 29010KT P6SM BKN080
     FM250400 VRB04KT P6SM BKN060
     FM251300 28010KT 3SM -SN BKN010
      AMD LTD TO CLD VIS AND WIND=



000
FTUS45 KGGW 241700
TAFGDV
TAF
KGDV 241727Z 2418/2518 29012KT P6SM BKN080
     FM250400 22006KT P6SM BKN050
     FM251200 24012KT 3SM -SN BKN010
      AMD LTD TO CLD VIS AND WIND=



000
FTUS45 KGGW 241700
TAFOLF
TAF
KOLF 241727Z 2418/2518 28008KT P6SM BKN080
     FM250300 19003KT P6SM BKN050
     FM251300 16005KT 3SM -SN BKN010
     FM251700 29015KT P6SM VCSH BKN015=



000
FTUS45 KGGW 241700
TAFGGW
TAF
KGGW 241727Z 2418/2518 30012KT P6SM BKN070
     FM250300 13006KT P6SM BKN050
     FM251100 14008KT 3SM -SN BR BKN010
     FM251700 31018KT P6SM VCSH BKN015=



000
FTUS45 KGGW 241700
TAFGDV
TAF
KGDV 241727Z 2418/2518 29012KT P6SM BKN080
     FM250400 22006KT P6SM BKN050
     FM251200 24012KT 3SM -SN BKN010
      AMD LTD TO CLD VIS AND WIND=



000
FTUS45 KGGW 241700
TAFOLF
TAF
KOLF 241727Z 2418/2518 28008KT P6SM BKN080
     FM250300 19003KT P6SM BKN050
     FM251300 16005KT 3SM -SN BKN010
     FM251700 29015KT P6SM VCSH BKN015=



000
FTUS45 KGGW 241600 AAB
TAFSDY
TAF AMD
KSDY 241608Z 2416/2512 VRB03KT P6SM BKN007
      TEMPO 2416/2417 SCT010
     FM241700 29008KT P6SM BKN100
     FM250800 VRB04KT P6SM BKN060
      AMD LTD TO CLD VIS AND WIND=



000
FTUS45 KGGW 241400 AAA
TAFSDY
TAF AMD
KSDY 241430Z 2415/2512 VRB03KT P6SM BKN007
      TEMPO 2415/2416 SCT010
     FM241600 29008KT P6SM BKN100
     FM250800 VRB04KT P6SM BKN060
      AMD LTD TO CLD VIS AND WIND=



000
FTUS45 KGGW 241100
TAFOLF
TAF
KOLF 241122Z 2412/2512 VRB04KT P6SM BKN080
     FM242100 27011KT P6SM BKN100
     FM250700 16005KT P6SM OVC050=



000
FTUS45 KGGW 241100
TAFGDV
TAF
KGDV 241122Z 2412/2512 VRB06KT P6SM BKN070
     FM241700 29012KT P6SM BKN100
     FM250400 22006KT P6SM OVC050
      AMD LTD TO CLD VIS AND WIND=



000
FTUS45 KGGW 241100
TAFGGW
TAF
KGGW 241122Z 2412/2512 VRB05KT P6SM BKN060
     FM241800 30009KT P6SM BKN100
     FM250500 13006KT P6SM OVC050=



000
FTUS45 KGGW 241100
TAFOLF
TAF
KOLF 241122Z 2412/2512 VRB04KT P6SM BKN080
     FM242100 27011KT P6SM BKN100
     FM250700 16005KT P6SM OVC050=



000
FTUS45 KGGW 241100
TAFGDV
TAF
KGDV 241122Z 2412/2512 VRB06KT P6SM BKN070
     FM241700 29012KT P6SM BKN100
     FM250400 22006KT P6SM OVC050
      AMD LTD TO CLD VIS AND WIND=



000
FTUS45 KGGW 241100
TAFSDY
TAF
KSDY 241122Z 2412/2512 VRB03KT P6SM BKN010
      TEMPO 2412/2414 SCT010
     FM241400 29008KT P6SM BKN100
     FM250800 VRB04KT P6SM BKN060
      AMD LTD TO CLD VIS AND WIND=



000
FTUS45 KGGW 240500
TAFSDY
TAF
KSDY 240520Z 2406/2506 30007KT P6SM BKN250
     FM241200 VRB03KT P6SM BKN120
     FM241800 29008KT P6SM BKN100
     FM242100 28012KT P6SM BKN060
      AMD LTD TO CLD VIS AND WIND=



000
FTUS45 KGGW 240500
TAFGDV
TAF
KGDV 240520Z 2406/2506 VRB06KT P6SM BKN250
     FM242100 29012KT P6SM BKN060
      AMD LTD TO CLD VIS AND WIND=



000
FTUS45 KGGW 240500
TAFGGW
TAF
KGGW 240520Z 2406/2506 VRB05KT P6SM BKN200
     FM241800 30009KT P6SM BKN100=



000
FTUS45 KGGW 240500
TAFOLF
TAF
KOLF 240520Z 2406/2506 VRB04KT P6SM BKN200
     FM242100 27011KT P6SM BKN045=



000
FTUS45 KGGW 240500
TAFGDV
TAF
KGDV 240520Z 2406/2506 VRB06KT P6SM BKN250
     FM242100 29012KT P6SM BKN060
      AMD LTD TO CLD VIS AND WIND=



000
FTUS45 KGGW 240500
TAFOLF
TAF
KOLF 240520Z 2406/2506 VRB04KT P6SM BKN200
     FM242100 27011KT P6SM BKN045=



000
FTUS45 KGGW 240300 AAB
TAFSDY
TAF AMD
KSDY 240318Z 2403/2424 31005KT P6SM SCT023
     FM240800 30009KT P6SM BKN015
     FM242100 28013KT P6SM BKN025
      AMD LTD TO CLD VIS AND WIND=



000
FTUS45 KGGW 240300 AAB
TAFGDV
TAF AMD
KGDV 240318Z 2403/2424 31005KT P6SM SCT060
     FM240900 31009KT P6SM BKN025
     FM241200 VRB05KT P6SM BKN015
     FM242100 29013KT P6SM BKN030
      AMD LTD TO CLD VIS AND WIND=



000
FTUS45 KGGW 240300 AAB
TAFGDV
TAF AMD
KGDV 240318Z 2403/2424 31005KT P6SM SCT060
     FM240900 31009KT P6SM BKN025
     FM241200 VRB05KT P6SM BKN015
     FM242100 29013KT P6SM BKN030
      AMD LTD TO CLD VIS AND WIND=



000
FTUS45 KGGW 240300 AAA
TAFGGW
TAF AMD
KGGW 240318Z 2403/2424 33011KT P6SM SCT060
     FM240900 36010KT P6SM BKN025=



000
FTUS45 KGGW 240300 AAB
TAFGDV
TAF AMD
KGDV 240318Z 2403/2424 31005KT P6SM SCT060
     FM240900 31009KT P6SM BKN025
     FM241200 VRB05KT P6SM BKN015
     FM242100 29013KT P6SM BKN030
      AMD LTD TO CLD VIS AND WIND=



000
FTUS45 KGGW 240300 AAB
TAFSDY
TAF AMD
KSDY 240318Z 2403/2424 31005KT P6SM SCT023
     FM240800 30009KT P6SM BKN015
     FM242100 28013KT P6SM BKN025
      AMD LTD TO CLD VIS AND WIND=



000
FTUS45 KGGW 240300 AAB
TAFGDV
TAF AMD
KGDV 240318Z 2403/2424 31005KT P6SM SCT060
     FM240900 31009KT P6SM BKN025
     FM241200 VRB05KT P6SM BKN015
     FM242100 29013KT P6SM BKN030
      AMD LTD TO CLD VIS AND WIND=



000
FTUS45 KGGW 240300 AAA
TAFGGW
TAF AMD
KGGW 240318Z 2403/2424 33011KT P6SM SCT060
     FM240900 36010KT P6SM BKN025=



000
FTUS45 KGGW 240100 AAA
TAFSDY
TAF AMD
KSDY 240113Z 2401/2424 31005KT P6SM BKN023
     FM240600 30009KT P6SM BKN015
     FM242100 28013KT P6SM BKN025
      AMD LTD TO CLD VIS AND WIND=



000
FTUS45 KGGW 240100 AAA
TAFGDV
TAF AMD
KGDV 240113Z 2401/2424 31005KT P6SM BKN060
     FM240300 31009KT P6SM BKN025
     FM241200 VRB05KT P6SM BKN015
     FM242100 29013KT P6SM BKN030
      AMD LTD TO CLD VIS AND WIND=



000
FTUS45 KGGW 240100 AAA
TAFGDV
TAF AMD
KGDV 240113Z 2401/2424 31005KT P6SM BKN060
     FM240300 31009KT P6SM BKN025
     FM241200 VRB05KT P6SM BKN015
     FM242100 29013KT P6SM BKN030
      AMD LTD TO CLD VIS AND WIND=



000
FTUS45 KGGW 240100 AAA
TAFOLF
TAF AMD
KOLF 240112Z 2401/2424 31008KT P6SM BKN060
     FM240900 VRB04KT 5SM BR BKN005
     FM241400 27009KT P6SM BKN025=



000
FTUS45 KGGW 240100 AAA
TAFOLF
TAF AMD
KOLF 240112Z 2401/2424 31008KT P6SM BKN060
     FM240900 VRB04KT 5SM BR BKN005
     FM241400 27009KT P6SM BKN025=



000
FTUS45 KGGW 232300
TAFOLF
TAF
KOLF 232320Z 2400/2424 31012KT P6SM BKN060
     FM240300 31008KT P6SM BKN040
     FM240900 VRB04KT 5SM BR BKN005
     FM241400 27009KT P6SM BKN025=



000
FTUS45 KGGW 232300
TAFOLF
TAF
KOLF 232320Z 2400/2424 31012KT P6SM BKN060
     FM240300 31008KT P6SM BKN040
     FM240900 VRB04KT 5SM BR BKN005
     FM241400 27009KT P6SM BKN025=



000
FTUS45 KGGW 232300
TAFGDV
TAF
KGDV 232320Z 2400/2424 31016G24KT P6SM BKN060
     FM240300 31009KT P6SM BKN025
     FM241200 VRB05KT P6SM BKN015
     FM242100 29013KT P6SM BKN030
      AMD LTD TO CLD VIS AND WIND=



000
FTUS45 KGGW 232300
TAFGDV
TAF
KGDV 232320Z 2400/2424 31016G24KT P6SM BKN060
     FM240300 31009KT P6SM BKN025
     FM241200 VRB05KT P6SM BKN015
     FM242100 29013KT P6SM BKN030
      AMD LTD TO CLD VIS AND WIND=



000
FTUS45 KGGW 232300
TAFGGW
TAF
KGGW 232320Z 2400/2424 33011KT P6SM BKN060
     FM240300 36010KT P6SM BKN025=



000
FTUS45 KGGW 232300
TAFSDY
TAF
KSDY 232320Z 2400/2424 31015KT P6SM BKN023
     FM240600 30009KT P6SM BKN015
     FM242100 28013KT P6SM BKN025
      AMD LTD TO CLD VIS AND WIND=



000
FTUS45 KGGW 232000 AAA
TAFGGW
TAF AMD
KGGW 232007Z 2320/2418 32020G30KT P6SM BKN025
      TEMPO 2320/2321 1SM -SN
     FM232300 01010KT P6SM SCT020
     FM240900 06005KT P6SM SCT020 BKN180
     FM241500 31006KT P6SM OVC100=



000
FTUS45 KGGW 231800 AAA
TAFGDV
TAF AMD
KGDV 231855Z 2319/2418 28025G35KT P6SM BKN027
     FM240000 32010KT P6SM SCT030
     FM241200 33006KT P6SM FEW030 BKN150
      AMD LTD TO CLD VIS AND WIND=



000
FTUS45 KGGW 231800 AAA
TAFGDV
TAF AMD
KGDV 231855Z 2319/2418 28025G35KT P6SM BKN027
     FM240000 32010KT P6SM SCT030
     FM241200 33006KT P6SM FEW030 BKN150
      AMD LTD TO CLD VIS AND WIND=



000
FTUS45 KGGW 231800 AAA
TAFSDY
TAF AMD
KSDY 231849Z 2319/2418 29020G30KT P6SM SCT025
     FM240000 32015KT P6SM BKN030
     FM240600 32006KT P6SM SCT030
     FM241500 33005KT P6SM FEW020 BKN150
      AMD LTD TO CLD VIS AND WIND=



000
FTUS45 KGGW 231700
TAFGDV
TAF
KGDV 231726Z 2318/2418 29022G30KT 5SM -SN BKN018
      TEMPO 2318/2319 1SM -SN
     FM231900 31020G25KT P6SM OVC025
     FM240000 32010KT P6SM SCT030
     FM241200 33006KT P6SM FEW030 BKN150
      AMD LTD TO CLD VIS AND WIND=



000
FTUS45 KGGW 231700
TAFGDV
TAF
KGDV 231726Z 2318/2418 29022G30KT 5SM -SN BKN018
      TEMPO 2318/2319 1SM -SN
     FM231900 31020G25KT P6SM OVC025
     FM240000 32010KT P6SM SCT030
     FM241200 33006KT P6SM FEW030 BKN150
      AMD LTD TO CLD VIS AND WIND=



000
FTUS45 KGGW 231700
TAFOLF
TAF
KOLF 231726Z 2318/2418 31017G25KT P6SM BKN025
     FM232300 34015KT P6SM SCT040
     FM240900 VRB05KT P6SM SCT020 BKN200=



000
FTUS45 KGGW 231700
TAFOLF
TAF
KOLF 231726Z 2318/2418 31017G25KT P6SM BKN025
     FM232300 34015KT P6SM SCT040
     FM240900 VRB05KT P6SM SCT020 BKN200=



000
FTUS45 KGGW 231700
TAFSDY
TAF
KSDY 231726Z 2318/2418 30025G30KT 5SM -SN BKN017
      TEMPO 2318/2319 1SM -SN
     FM231900 31020G25KT P6SM OVC025
     FM240000 32015KT P6SM BKN030
     FM240600 32006KT P6SM SCT030
     FM241500 33005KT P6SM FEW020 BKN150
      AMD LTD TO CLD VIS AND WIND=



000
FTUS45 KGGW 231700
TAFGGW
TAF
KGGW 231726Z 2318/2418 31025G35KT P6SM BKN025
     FM232300 01010KT P6SM SCT020
     FM240900 06005KT P6SM SCT020 BKN180
     FM241500 31006KT P6SM OVC100=



000
FTUS45 KGGW 231100
TAFGDV
TAF
KGDV 231130Z 2312/2412 29022G35KT P6SM -SHSN OVC030
     FM231800 31023G33KT P6SM VCSH OVC018
     FM240000 32018KT P6SM BKN040
     FM240600 29008KT P6SM SCT027 BKN190
      AMD LTD TO CLD VIS AND WIND=



000
FTUS45 KGGW 231100
TAFGGW
TAF
KGGW 231130Z 2312/2412 31023G35KT 4SM -SN BKN025 OVC035
     FM231800 31020G28KT P6SM BKN027
     FM240000 33012KT P6SM SCT030 BKN230
     FM240300 35008KT P6SM SCT017 BKN230=



000
FTUS45 KGGW 231100
TAFGDV
TAF
KGDV 231130Z 2312/2412 29022G35KT P6SM -SHSN OVC030
     FM231800 31023G33KT P6SM VCSH OVC018
     FM240000 32018KT P6SM BKN040
     FM240600 29008KT P6SM SCT027 BKN190
      AMD LTD TO CLD VIS AND WIND=



000
FTUS45 KGGW 231100
TAFOLF
TAF
KOLF 231130Z 2312/2412 29022G33KT 5SM -SN OVC035
     FM231800 31020G28KT P6SM OVC025
     FM240000 31013KT P6SM SCT040 BKN045
     FM240600 VRB06KT P6SM SCT012 BKN110=



000
FTUS45 KGGW 231100
TAFSDY
TAF
KSDY 231130Z 2312/2412 29025G38KT 5SM -SN BKN025 OVC050
     FM231800 31022G31KT P6SM VCSH OVC023
     FM240000 31018KT P6SM BKN030
     FM240600 29008KT P6SM SCT013 BKN080
      AMD LTD TO CLD VIS AND WIND=



000
FTUS45 KGGW 231100
TAFOLF
TAF
KOLF 231130Z 2312/2412 29022G33KT 5SM -SN OVC035
     FM231800 31020G28KT P6SM OVC025
     FM240000 31013KT P6SM SCT040 BKN045
     FM240600 VRB06KT P6SM SCT012 BKN110=



000
FTUS45 KGGW 231000 AAA
TAFGGW
TAF AMD
KGGW 231050Z 2311/2406 30025G33KT P6SM VCSH SCT016 OVC025
     FM231800 32022G33KT P6SM VCSH BKN040
     FM240000 32012KT P6SM SCT050=



000
FTUS45 KGGW 231000 AAA
TAFOLF
TAF AMD
KOLF 231050Z 2311/2406 29021G32KT P6SM VCSH SCT017 OVC025
     FM231800 32021G32KT P6SM VCSH OVC025
     FM240000 31014KT P6SM BKN045=



000
FTUS45 KGGW 231000 AAA
TAFOLF
TAF AMD
KOLF 231050Z 2311/2406 29021G32KT P6SM VCSH SCT017 OVC025
     FM231800 32021G32KT P6SM VCSH OVC025
     FM240000 31014KT P6SM BKN045=



000
FTUS45 KGGW 230500
TAFOLF
TAF
KOLF 230520Z 2306/2406 27024G36KT P6SM VCSH SCT017 BKN040
     FM231800 32021G32KT P6SM VCSH OVC025
     FM240000 31014KT P6SM BKN045=



000
FTUS45 KGGW 230500
TAFGGW
TAF
KGGW 230520Z 2306/2406 28025G38KT P6SM VCSH SCT016 BKN045
     FM231800 32022G33KT P6SM VCSH BKN040
     FM240000 32012KT P6SM SCT050=



000
FTUS45 KGGW 230500
TAFSDY
TAF
KSDY 230520Z 2306/2406 27024G36KT P6SM VCSH SCT011 BKN045
     FM231800 32023G34KT P6SM VCSH OVC023
     FM240000 32017G25KT P6SM BKN030
      AMD LTD TO CLD VIS AND WIND=



000
FTUS45 KGGW 230500
TAFOLF
TAF
KOLF 230520Z 2306/2406 27024G36KT P6SM VCSH SCT017 BKN040
     FM231800 32021G32KT P6SM VCSH OVC025
     FM240000 31014KT P6SM BKN045=



000
FTUS45 KGGW 230500
TAFGDV
TAF
KGDV 230520Z 2306/2406 27023G34KT P6SM SCT035 BKN045
     FM231200 29025G37KT P6SM VCSH OVC030
     FM240000 32018G26KT P6SM BKN040
      AMD LTD TO CLD VIS AND WIND=



000
FTUS45 KGGW 230500
TAFGDV
TAF
KGDV 230520Z 2306/2406 27023G34KT P6SM SCT035 BKN045
     FM231200 29025G37KT P6SM VCSH OVC030
     FM240000 32018G26KT P6SM BKN040
      AMD LTD TO CLD VIS AND WIND=



    US Dept of Commerce
    National Oceanic and Atmospheric Administration
    National Weather Service
    1325 East West Highway
    Silver Spring, MD 20910
    Page Author: NWS Internet Services Team
Disclaimer
Information Quality
Credits
Glossary
Privacy Policy
Freedom of Information Act (FOIA)
About Us
Career Opportunities